Time;durP1;ratioP1;P1;durP2;ratioP2;P2;SDS_P1;SDS_P2;PMS_P1;PMS_P2;Temp;Humidity;BMP_temperature;BMP_pressure;BME280_temperature;BME280_humidity;BME280_pressure;Samples;Min_cycle;Max_cycle;Signal;HPM_P1;HPM_P2
2021/07/21 00:00:56;;;;;;;9.13;3.40;;;;;;;21.69;100.00;98220.53;1703494;83;21083;-71
2021/07/21 00:03:25;;;;;;;6.90;3.30;;;;;;;21.69;100.00;98220.53;1699980;83;20989;-71
2021/07/21 00:05:54;;;;;;;6.65;2.70;;;;;;;21.69;100.00;98220.53;1703978;82;21502;-70
2021/07/21 00:08:22;;;;;;;6.58;2.80;;;;;;;21.68;100.00;98215.64;1704646;82;21101;-71
2021/07/21 00:13:27;;;;;;;8.30;3.00;;;;;;;21.69;100.00;98209.31;1703671;82;21447;-71
2021/07/21 00:13:27;;;;;;;;;;;;;;;21.71;100.00;98209.69;1703995;82;21569;-70
2021/07/21 00:18:33;;;;;;;10.30;3.10;;;;;;;21.71;100.00;98206.53;1704057;83;21481;-71
2021/07/21 00:21:01;;;;;;;9.68;3.12;;;;;;;21.69;100.00;98205.77;1704311;83;21089;-71
2021/07/21 00:23:31;;;;;;;7.87;3.30;;;;;;;21.67;100.00;98200.50;1702930;83;21062;-71
2021/07/21 00:26:00;;;;;;;8.58;3.33;;;;;;;21.68;100.00;98206.25;1703846;82;21509;-70
2021/07/21 00:28:28;;;;;;;10.80;2.95;;;;;;;21.68;100.00;98209.41;1720005;83;20981;-70
2021/07/21 00:30:56;;;;;;;6.30;2.87;;;;;;;21.67;100.00;98208.55;1724600;82;21438;-71
2021/07/21 00:33:25;;;;;;;6.75;3.50;;;;;;;21.67;100.00;98212.58;1723008;83;21406;-71
2021/07/21 00:35:53;;;;;;;5.65;3.05;;;;;;;21.67;100.00;98202.33;1721644;82;20998;-70
2021/07/21 00:38:21;;;;;;;6.42;2.62;;;;;;;21.70;100.00;98204.80;1724706;82;20956;-70
2021/07/21 00:40:51;;;;;;;6.75;3.12;;;;;;;21.70;100.00;98198.09;1722280;83;20964;-71
2021/07/21 00:43:20;;;;;;;11.10;3.20;;;;;;;21.70;100.00;98195.41;1721335;82;21074;-71
2021/07/21 00:45:50;;;;;;;8.30;3.05;;;;;;;21.72;100.00;98196.66;1721192;82;21032;-71
2021/07/21 00:48:19;;;;;;;5.53;2.77;;;;;;;21.72;100.00;98198.00;1722436;82;20984;-70
2021/07/21 00:50:49;;;;;;;5.12;2.60;;;;;;;21.72;100.00;98204.70;1722362;82;20983;-71
2021/07/21 00:53:20;;;;;;;9.50;2.83;;;;;;;21.72;100.00;98203.36;1725412;82;21413;-70
2021/07/21 00:55:48;;;;;;;7.78;3.02;;;;;;;21.69;100.00;98197.72;1725900;82;20939;-70
2021/07/21 00:58:16;;;;;;;8.23;3.33;;;;;;;21.67;100.00;98199.16;1723480;82;21095;-70
2021/07/21 01:00:46;;;;;;;7.35;3.15;;;;;;;21.67;100.00;98207.69;1721079;82;21489;-70
2021/07/21 01:03:15;;;;;;;6.90;2.70;;;;;;;21.65;100.00;98197.54;1726043;82;20956;-70
2021/07/21 01:05:44;;;;;;;9.10;3.10;;;;;;;21.64;100.00;98198.02;1724466;82;20904;-70
2021/07/21 01:08:15;;;;;;;10.80;2.80;;;;;;;21.62;100.00;98189.21;1723129;82;20864;-70
2021/07/21 01:11:24;;;;;;;10.20;2.87;;;;;;;21.61;100.00;98198.23;1724631;82;21414;-71
2021/07/21 01:14:05;;;;;;;;;;;;;;;21.60;100.00;98201.02;1724276;82;21459;-70
2021/07/21 01:16:35;;;;;;;8.20;5.58;;;;;;;21.60;100.00;98195.16;1722433;82;20459;-71
2021/07/21 01:19:12;;;;;;;8.13;5.40;;;;;;;21.60;100.00;98193.81;1699517;82;20965;-71
2021/07/21 01:22:15;;;;;;;9.73;3.47;;;;;;;21.58;100.00;98183.67;1725804;83;21494;-71
2021/07/21 01:25:09;;;;;;;4.37;2.87;;;;;;;21.59;100.00;98184.53;1720042;82;21106;-71
2021/07/21 01:27:47;;;;;;;4.58;2.52;;;;;;;21.57;100.00;98179.27;1717320;82;20916;-71
2021/07/21 01:30:24;;;;;;;10.03;4.25;;;;;;;21.58;100.00;98176.95;1722259;82;21518;-70
2021/07/21 01:33:06;;;;;;;11.93;4.85;;;;;;;21.58;100.00;98186.35;1696253;82;20916;-71
2021/07/21 01:36:00;;;;;;;10.35;4.97;;;;;;;21.57;100.00;98192.68;1721013;83;21451;-70
2021/07/21 01:38:36;;;;;;;9.58;5.37;;;;;;;21.58;100.00;98189.52;1721717;82;21402;-70
2021/07/21 01:41:16;;;;;;;5.62;3.27;;;;;;;21.59;100.00;98187.21;1724307;82;21105;-71
2021/07/21 01:43:50;;;;;;;3.67;2.83;;;;;;;21.60;100.00;98180.88;1696456;83;20902;-71
2021/07/21 01:46:23;;;;;;;7.03;3.17;;;;;;;21.57;100.00;98179.27;1724042;83;20956;-70
2021/07/21 01:48:53;;;;;;;8.53;3.40;;;;;;;21.56;100.00;98173.52;1720032;82;20972;-71
2021/07/21 01:51:25;;;;;;;6.35;2.95;;;;;;;21.57;100.00;98181.09;1723451;83;21475;-70
2021/07/21 01:53:56;;;;;;;9.20;3.20;;;;;;;21.55;100.00;98176.30;1695793;82;21460;-71
2021/07/21 01:56:27;;;;;;;5.85;3.50;;;;;;;21.53;100.00;98173.72;1726035;82;20916;-71
2021/07/21 01:58:58;;;;;;;6.05;3.20;;;;;;;21.54;100.00;98170.55;1726409;82;21083;-71
2021/07/21 02:01:30;;;;;;;6.58;3.62;;;;;;;21.52;100.00;98167.11;1720926;83;21513;-70
2021/07/21 02:04:00;;;;;;;7.17;3.12;;;;;;;21.51;100.00;98168.94;1694306;83;21112;-70
2021/07/21 02:06:32;;;;;;;8.43;3.58;;;;;;;21.50;100.00;98165.02;1716291;83;21434;-67
2021/07/21 02:09:01;;;;;;;6.97;3.40;;;;;;;21.50;100.00;98170.38;1718909;83;21561;-67
2021/07/21 02:11:29;;;;;;;7.53;3.90;;;;;;;21.51;100.00;98168.08;1723397;82;20948;-68
2021/07/21 02:13:59;;;;;;;7.92;3.80;;;;;;;21.49;100.00;98162.81;1725022;82;21418;-68
2021/07/21 02:16:29;;;;;;;6.37;3.77;;;;;;;21.53;100.00;98170.17;1692215;82;21985;-68
2021/07/21 02:19:00;;;;;;;7.08;4.22;;;;;;;21.53;100.00;98170.17;1723988;82;21422;-68
2021/07/21 02:21:40;;;;;;;5.65;3.75;;;;;;;21.55;100.00;98169.59;1720495;82;21509;-67
2021/07/21 02:24:09;;;;;;;6.80;4.25;;;;;;;21.58;100.00;98168.05;1720312;82;21510;-68
2021/07/21 02:26:42;;;;;;;8.58;4.33;;;;;;;21.60;100.00;98174.17;1697668;82;20892;-68
2021/07/21 02:29:10;;;;;;;13.90;4.55;;;;;;;21.60;100.00;98169.66;1724792;82;21090;-67
2021/07/21 02:31:56;;;;;;;9.00;4.50;;;;;;;21.61;100.00;98167.84;1716433;82;21032;-67
2021/07/21 02:34:25;;;;;;;7.17;4.45;;;;;;;21.62;100.00;98167.74;1697519;83;21451;-67
2021/07/21 02:36:53;;;;;;;8.70;4.70;;;;;;;21.65;100.00;98170.22;1722422;82;21552;-66
2021/07/21 02:39:25;;;;;;;12.82;4.40;;;;;;;21.67;100.00;98169.64;1697543;82;20996;-67
2021/07/21 02:41:53;;;;;;;;;;;;;;;21.67;100.00;98165.61;1692009;83;21099;-70
2021/07/21 02:44:22;;;;;;;7.45;4.35;;;;;;;21.69;100.00;98165.51;1696413;82;20624;-70
2021/07/21 02:46:52;;;;;;;8.73;4.92;;;;;;;21.70;100.00;98157.84;1722238;83;20928;-66
2021/07/21 02:49:20;;;;;;;10.72;4.90;;;;;;;21.71;100.00;98164.06;1696016;83;21015;-65
2021/07/21 02:52:12;;;;;;;6.33;5.08;;;;;;;21.69;100.00;98162.83;1701579;83;21110;-66
2021/07/21 02:55:16;;;;;;;6.58;4.35;;;;;;;21.67;100.00;98164.27;1723548;82;21108;-66
2021/07/21 02:57:55;;;;;;;;;;;;;;;21.63;100.00;98164.09;1727116;82;21418;-65
2021/07/21 03:00:28;;;;;;;6.08;4.70;;;;;;;21.63;100.00;98163.23;1719018;82;20467;-66
2021/07/21 03:03:08;;;;;;;8.00;4.62;;;;;;;21.60;100.00;98172.83;1677796;84;21003;-73
2021/07/21 03:05:37;;;;;;;6.30;4.53;;;;;;;21.57;100.00;98171.69;1723127;82;20892;-69
2021/07/21 03:08:07;;;;;;;6.62;4.65;;;;;;;21.56;100.00;98166.80;1700444;83;21946;-70
2021/07/21 03:10:39;;;;;;;6.80;4.83;;;;;;;21.58;100.00;98166.70;1681089;83;20865;-75
2021/07/21 03:13:12;;;;;;;6.65;4.50;;;;;;;21.59;100.00;98171.11;1649894;84;20959;-70
2021/07/21 03:15:43;;;;;;;5.40;4.53;;;;;;;21.62;100.00;98173.59;1702861;82;20958;-68
2021/07/21 03:18:17;;;;;;;6.03;5.12;;;;;;;21.63;100.00;98180.20;1699151;83;21441;-68
2021/07/21 03:20:48;;;;;;;6.28;4.78;;;;;;;21.65;100.00;98178.75;1698415;82;21479;-67
2021/07/21 03:23:16;;;;;;;9.55;4.80;;;;;;;21.68;100.00;98182.58;1699848;83;22294;-70
2021/07/21 03:25:49;;;;;;;7.97;5.10;;;;;;;21.70;100.00;98179.31;1718237;82;21483;-69
2021/07/21 03:28:17;;;;;;;8.73;5.50;;;;;;;21.73;100.00;98182.27;1698095;82;20888;-67
2021/07/21 03:30:56;;;;;;;7.47;4.92;;;;;;;21.72;100.00;98178.72;1699752;82;20946;-68
2021/07/21 03:33:25;;;;;;;9.93;5.08;;;;;;;21.72;100.00;98176.04;1719264;81;21530;-68
2021/07/21 03:36:02;;;;;;;8.65;5.17;;;;;;;21.74;100.00;98178.62;1719143;82;20942;-68
2021/07/21 03:38:32;;;;;;;6.92;5.45;;;;;;;21.76;100.00;98174.02;1716946;82;20891;-69
2021/07/21 03:41:02;;;;;;;6.70;5.50;;;;;;;21.77;100.00;98177.97;1712468;82;21149;-68
2021/07/21 03:43:41;;;;;;;7.67;5.60;;;;;;;21.75;100.00;98173.15;1717850;82;20960;-67
2021/07/21 03:46:11;;;;;;;8.08;5.40;;;;;;;21.75;100.00;98180.34;1712568;82;21438;-66
2021/07/21 03:48:39;;;;;;;8.05;5.60;;;;;;;21.74;100.00;98180.83;1694586;83;20882;-67
2021/07/21 03:51:25;;;;;;;7.87;6.05;;;;;;;21.75;100.00;98184.37;1704251;83;21053;-66
2021/07/21 03:54:11;;;;;;;9.08;6.80;;;;;;;21.78;100.00;98186.40;1704139;83;20946;-67
2021/07/21 03:56:44;;;;;;;9.63;7.17;;;;;;;21.78;100.00;98180.17;1703847;83;20911;-69
2021/07/21 03:59:16;;;;;;;10.43;6.90;;;;;;;21.80;100.00;98187.16;1703493;83;21108;-69
2021/07/21 04:01:45;;;;;;;8.00;5.45;;;;;;;21.82;100.00;98179.00;1702994;83;20999;-68
2021/07/21 04:04:16;;;;;;;9.38;5.47;;;;;;;21.86;100.00;98178.69;1702979;83;20900;-68
2021/07/21 04:06:45;;;;;;;7.85;5.70;;;;;;;21.86;100.00;98178.69;1703646;82;20964;-68
2021/07/21 04:09:21;;;;;;;7.80;5.95;;;;;;;21.88;100.00;98179.93;1660774;83;21501;-69
2021/07/21 04:11:54;;;;;;;10.15;6.62;;;;;;;21.87;100.00;98176.39;1704276;82;21103;-71
2021/07/21 04:14:24;;;;;;;9.85;5.50;;;;;;;21.88;100.00;98172.73;1683802;83;20927;-72
2021/07/21 04:17:06;;;;;;;9.18;5.53;;;;;;;21.91;100.00;98182.41;1697138;83;20958;-71
2021/07/21 04:19:34;;;;;;;7.35;5.72;;;;;;;21.92;100.00;98180.10;1703107;83;20911;-71
2021/07/21 04:22:03;;;;;;;6.78;5.53;;;;;;;21.93;100.00;98179.14;1703022;82;20922;-72
2021/07/21 04:24:31;;;;;;;8.10;5.60;;;;;;;21.92;100.00;98180.96;1671010;83;21082;-71
2021/07/21 04:27:03;;;;;;;8.88;5.40;;;;;;;21.92;100.00;98176.08;1695126;83;21010;-71
2021/07/21 04:29:32;;;;;;;11.80;5.95;;;;;;;21.92;100.00;98180.10;1681612;83;21565;-72
2021/07/21 04:32:01;;;;;;;11.95;6.20;;;;;;;21.92;100.00;98179.62;1703441;83;20979;-70
2021/07/21 04:34:31;;;;;;;8.98;6.28;;;;;;;21.92;100.00;98187.67;1696231;83;20967;-71
2021/07/21 04:37:00;;;;;;;6.75;6.05;;;;;;;21.91;100.00;98186.44;1720722;82;21053;-71
2021/07/21 04:39:29;;;;;;;7.22;5.53;;;;;;;21.89;100.00;98185.20;1722870;83;20970;-71
2021/07/21 04:42:15;;;;;;;9.68;5.90;;;;;;;21.90;100.00;98187.40;1705053;83;20902;-71
2021/07/21 04:44:44;;;;;;;9.33;5.97;;;;;;;21.87;100.00;98185.78;1703847;83;20888;-70
2021/07/21 04:47:13;;;;;;;10.05;6.22;;;;;;;21.86;100.00;98185.88;1686890;83;20985;-71
2021/07/21 04:49:43;;;;;;;8.45;5.95;;;;;;;21.83;100.00;98190.98;1695680;83;21123;-72
2021/07/21 04:52:14;;;;;;;10.18;5.90;;;;;;;21.82;100.00;98191.08;1719580;82;21418;-71
2021/07/21 04:54:42;;;;;;;7.42;5.53;;;;;;;21.82;100.00;98187.91;1713525;83;20951;-71
2021/07/21 04:57:10;;;;;;;7.90;5.45;;;;;;;21.80;100.00;98187.16;1713458;82;21399;-72
2021/07/21 04:59:46;;;;;;;7.80;5.50;;;;;;;21.76;100.00;98192.80;1707399;82;21522;-71
2021/07/21 05:02:17;;;;;;;7.60;5.97;;;;;;;21.74;100.00;98189.36;1719072;82;21494;-71
